sensor_id;sensor_type;location;lat;lon;timestamp;pressure;altitude;pressure_sealevel;temperature;humidity
31717;BME280;18301;51.076;17.046;2023-02-04T00:00:53;99593.84;;;5.75;82.15
31717;BME280;18301;51.076;17.046;2023-02-04T00:05:54;99626.53;;;5.12;82.03
31717;BME280;18301;51.076;17.046;2023-02-04T00:10:56;99600.22;;;5.33;81.67
31717;BME280;18301;51.076;17.046;2023-02-04T00:15:57;99579.84;;;4.89;82.25
31717;BME280;18301;51.076;17.046;2023-02-04T00:20:59;99612.97;;;5.01;80.84
31717;BME280;18301;51.076;17.046;2023-02-04T00:26:00;99620.78;;;5.18;78.08
31717;BME280;18301;51.076;17.046;2023-02-04T00:31:02;99617.16;;;5.19;75.61
31717;BME280;18301;51.076;17.046;2023-02-04T00:36:04;99616.84;;;4.68;76.58
31717;BME280;18301;51.076;17.046;2023-02-04T00:41:05;99656.53;;;4.60;78.61
31717;BME280;18301;51.076;17.046;2023-02-04T00:46:07;99678.16;;;4.11;82.76
31717;BME280;18301;51.076;17.046;2023-02-04T00:51:08;99681.91;;;4.53;82.13
31717;BME280;18301;51.076;17.046;2023-02-04T00:56:10;99706.25;;;4.32;83.04
31717;BME280;18301;51.076;17.046;2023-02-04T01:01:12;99699.97;;;3.87;85.06
31717;BME280;18301;51.076;17.046;2023-02-04T01:06:13;99722.34;;;4.17;83.84
31717;BME280;18301;51.076;17.046;2023-02-04T01:11:15;99744.56;;;4.17;83.66
31717;BME280;18301;51.076;17.046;2023-02-04T01:16:17;99754.22;;;4.04;85.70
31717;BME280;18301;51.076;17.046;2023-02-04T01:21:18;99750.28;;;3.79;86.77
31717;BME280;18301;51.076;17.046;2023-02-04T01:26:20;99745.44;;;3.86;87.01
31717;BME280;18301;51.076;17.046;2023-02-04T01:31:22;99744.06;;;3.63;87.56
31717;BME280;18301;51.076;17.046;2023-02-04T01:36:24;99775.16;;;3.80;85.97
31717;BME280;18301;51.076;17.046;2023-02-04T01:41:26;99827.53;;;3.49;87.03
31717;BME280;18301;51.076;17.046;2023-02-04T01:46:28;99875.59;;;3.65;81.70
31717;BME280;18301;51.076;17.046;2023-02-04T01:51:29;99916.13;;;3.21;81.87
31717;BME280;18301;51.076;17.046;2023-02-04T01:56:32;99973.78;;;2.87;81.21
31717;BME280;18301;51.076;17.046;2023-02-04T02:01:39;99992.66;;;2.83;81.58
31717;BME280;18301;51.076;17.046;2023-02-04T02:06:48;100014.84;;;2.64;79.87
31717;BME280;18301;51.076;17.046;2023-02-04T02:11:52;100061.09;;;2.63;79.11
31717;BME280;18301;51.076;17.046;2023-02-04T02:16:54;100094.19;;;2.58;79.57
31717;BME280;18301;51.076;17.046;2023-02-04T02:22:01;100131.75;;;2.51;79.22
31717;BME280;18301;51.076;17.046;2023-02-04T02:27:07;100148.28;;;2.60;80.04
31717;BME280;18301;51.076;17.046;2023-02-04T02:32:10;100185.44;;;2.42;79.10
31717;BME280;18301;51.076;17.046;2023-02-04T02:37:13;100217.53;;;2.39;77.84
31717;BME280;18301;51.076;17.046;2023-02-04T02:42:16;100264.03;;;2.52;76.92
31717;BME280;18301;51.076;17.046;2023-02-04T02:47:20;100280.34;;;2.23;75.97
31717;BME280;18301;51.076;17.046;2023-02-04T02:52:23;100327.78;;;2.35;76.79
31717;BME280;18301;51.076;17.046;2023-02-04T02:57:24;100352.81;;;2.31;77.17
31717;BME280;18301;51.076;17.046;2023-02-04T03:02:26;100373.59;;;2.21;77.39
31717;BME280;18301;51.076;17.046;2023-02-04T03:07:27;100387.59;;;2.26;76.84
31717;BME280;18301;51.076;17.046;2023-02-04T03:12:29;100442.34;;;2.34;75.25
31717;BME280;18301;51.076;17.046;2023-02-04T03:17:31;100454.34;;;2.22;74.90
31717;BME280;18301;51.076;17.046;2023-02-04T03:22:32;100487.56;;;2.35;74.94
31717;BME280;18301;51.076;17.046;2023-02-04T03:27:34;100522.03;;;2.15;75.29
31717;BME280;18301;51.076;17.046;2023-02-04T03:32:35;100542.78;;;2.06;76.14
31717;BME280;18301;51.076;17.046;2023-02-04T03:37:37;100582.56;;;1.84;74.78
31717;BME280;18301;51.076;17.046;2023-02-04T03:42:39;100624.19;;;1.87;74.74
31717;BME280;18301;51.076;17.046;2023-02-04T03:47:40;100633.97;;;1.87;74.72
31717;BME280;18301;51.076;17.046;2023-02-04T03:52:42;100665.47;;;1.99;72.48
31717;BME280;18301;51.076;17.046;2023-02-04T03:57:45;100689.41;;;2.00;72.12
31717;BME280;18301;51.076;17.046;2023-02-04T04:02:46;100701.66;;;2.04;73.43
31717;BME280;18301;51.076;17.046;2023-02-04T04:07:48;100743.84;;;1.90;73.60
31717;BME280;18301;51.076;17.046;2023-02-04T04:12:49;100753.53;;;1.65;72.94
31717;BME280;18301;51.076;17.046;2023-02-04T04:17:51;100769.09;;;1.77;72.34
31717;BME280;18301;51.076;17.046;2023-02-04T04:22:52;100784.63;;;1.91;72.39
31717;BME280;18301;51.076;17.046;2023-02-04T04:27:54;100810.25;;;1.65;72.79
31717;BME280;18301;51.076;17.046;2023-02-04T04:32:55;100820.13;;;1.91;72.13
31717;BME280;18301;51.076;17.046;2023-02-04T04:37:57;100838.94;;;1.85;72.40
31717;BME280;18301;51.076;17.046;2023-02-04T04:42:58;100873.09;;;1.99;72.35
31717;BME280;18301;51.076;17.046;2023-02-04T04:47:59;100867.66;;;2.02;71.93
31717;BME280;18301;51.076;17.046;2023-02-04T04:53:01;100906.97;;;1.63;72.04
31717;BME280;18301;51.076;17.046;2023-02-04T04:58:04;100931.75;;;1.65;72.58
31717;BME280;18301;51.076;17.046;2023-02-04T05:03:06;100922.69;;;1.72;71.79
31717;BME280;18301;51.076;17.046;2023-02-04T05:08:07;100952.00;;;1.39;71.92
31717;BME280;18301;51.076;17.046;2023-02-04T05:13:14;100978.16;;;1.54;72.48
31717;BME280;18301;51.076;17.046;2023-02-04T05:18:16;101018.22;;;1.81;70.59
31717;BME280;18301;51.076;17.046;2023-02-04T05:23:17;101052.09;;;1.76;70.44
31717;BME280;18301;51.076;17.046;2023-02-04T05:28:19;101050.06;;;1.84;70.55
31717;BME280;18301;51.076;17.046;2023-02-04T05:33:20;101055.00;;;1.65;70.37
31717;BME280;18301;51.076;17.046;2023-02-04T05:38:22;101077.94;;;1.71;70.30
31717;BME280;18301;51.076;17.046;2023-02-04T05:43:23;101085.22;;;1.64;70.16
31717;BME280;18301;51.076;17.046;2023-02-04T05:48:24;101112.13;;;1.50;71.01
31717;BME280;18301;51.076;17.046;2023-02-04T05:53:26;101125.28;;;1.56;71.31
31717;BME280;18301;51.076;17.046;2023-02-04T05:58:27;101152.19;;;1.80;70.75
31717;BME280;18301;51.076;17.046;2023-02-04T06:03:33;101160.34;;;1.74;71.28
31717;BME280;18301;51.076;17.046;2023-02-04T06:08:35;101185.13;;;1.76;71.31
31717;BME280;18301;51.076;17.046;2023-02-04T06:13:36;101192.84;;;1.87;70.94
31717;BME280;18301;51.076;17.046;2023-02-04T06:18:38;101227.78;;;1.73;72.09
31717;BME280;18301;51.076;17.046;2023-02-04T06:23:39;101240.16;;;1.74;71.47
31717;BME280;18301;51.076;17.046;2023-02-04T06:28:41;101261.09;;;1.89;71.25
31717;BME280;18301;51.076;17.046;2023-02-04T06:33:42;101273.47;;;1.90;72.14
31717;BME280;18301;51.076;17.046;2023-02-04T06:38:44;101289.66;;;1.81;72.33
31717;BME280;18301;51.076;17.046;2023-02-04T06:43:45;101303.47;;;1.98;71.74
31717;BME280;18301;51.076;17.046;2023-02-04T06:48:47;101330.00;;;2.01;71.42
31717;BME280;18301;51.076;17.046;2023-02-04T06:53:48;101353.38;;;1.89;71.56
31717;BME280;18301;51.076;17.046;2023-02-04T06:58:50;101362.44;;;1.80;71.38
31717;BME280;18301;51.076;17.046;2023-02-04T07:03:51;101374.00;;;2.18;69.93
31717;BME280;18301;51.076;17.046;2023-02-04T07:08:53;101393.84;;;1.63;70.81
31717;BME280;18301;51.076;17.046;2023-02-04T07:13:54;101409.94;;;1.58;71.48
31717;BME280;18301;51.076;17.046;2023-02-04T07:18:56;101423.13;;;1.63;71.43
31717;BME280;18301;51.076;17.046;2023-02-04T07:23:57;101434.25;;;1.83;70.02
31717;BME280;18301;51.076;17.046;2023-02-04T07:28:58;101451.38;;;1.70;70.13
31717;BME280;18301;51.076;17.046;2023-02-04T07:34:00;101480.81;;;1.60;69.70
31717;BME280;18301;51.076;17.046;2023-02-04T07:39:01;101468.34;;;1.63;70.37
31717;BME280;18301;51.076;17.046;2023-02-04T07:44:03;101480.53;;;1.74;70.00
31717;BME280;18301;51.076;17.046;2023-02-04T07:49:05;101479.59;;;1.77;70.02
31717;BME280;18301;51.076;17.046;2023-02-04T07:54:06;101484.81;;;1.83;69.76
31717;BME280;18301;51.076;17.046;2023-02-04T07:59:07;101498.47;;;1.65;70.31
31717;BME280;18301;51.076;17.046;2023-02-04T08:04:09;101496.19;;;1.90;70.06
31717;BME280;18301;51.076;17.046;2023-02-04T08:09:10;101507.44;;;2.04;70.54
31717;BME280;18301;51.076;17.046;2023-02-04T08:14:12;101521.19;;;2.24;69.60
31717;BME280;18301;51.076;17.046;2023-02-04T08:19:13;101516.78;;;2.64;67.91
31717;BME280;18301;51.076;17.046;2023-02-04T08:24:19;101533.34;;;2.78;67.32
31717;BME280;18301;51.076;17.046;2023-02-04T08:29:20;101521.91;;;2.73;66.99
31717;BME280;18301;51.076;17.046;2023-02-04T08:34:22;101535.50;;;2.99;66.03
31717;BME280;18301;51.076;17.046;2023-02-04T08:39:23;101531.97;;;2.97;66.00
31717;BME280;18301;51.076;17.046;2023-02-04T08:44:25;101536.56;;;3.28;66.78
31717;BME280;18301;51.076;17.046;2023-02-04T08:49:26;101542.03;;;3.22;64.83
31717;BME280;18301;51.076;17.046;2023-02-04T08:54:28;101545.88;;;3.12;65.00
31717;BME280;18301;51.076;17.046;2023-02-04T08:59:29;101558.75;;;3.30;65.39
31717;BME280;18301;51.076;17.046;2023-02-04T09:04:31;101560.75;;;3.89;63.97
31717;BME280;18301;51.076;17.046;2023-02-04T09:09:32;101564.53;;;3.80;62.47
31717;BME280;18301;51.076;17.046;2023-02-04T09:14:34;101583.88;;;3.56;63.35
31717;BME280;18301;51.076;17.046;2023-02-04T09:19:35;101575.72;;;3.26;64.61
31717;BME280;18301;51.076;17.046;2023-02-04T09:24:37;101589.19;;;2.84;67.14
31717;BME280;18301;51.076;17.046;2023-02-04T09:29:38;101595.47;;;3.19;66.52
31717;BME280;18301;51.076;17.046;2023-02-04T09:34:40;101602.69;;;3.14;66.58
31717;BME280;18301;51.076;17.046;2023-02-04T09:39:41;101608.16;;;3.08;66.80
31717;BME280;18301;51.076;17.046;2023-02-04T09:44:43;101602.38;;;2.90;67.15
31717;BME280;18301;51.076;17.046;2023-02-04T09:49:45;101618.69;;;3.14;66.63
31717;BME280;18301;51.076;17.046;2023-02-04T09:54:47;101619.13;;;2.95;66.68
31717;BME280;18301;51.076;17.046;2023-02-04T09:59:50;101624.03;;;2.75;68.18
31717;BME280;18301;51.076;17.046;2023-02-04T10:04:56;101619.47;;;2.80;68.41
31717;BME280;18301;51.076;17.046;2023-02-04T10:09:58;101625.63;;;2.84;68.32
31717;BME280;18301;51.076;17.046;2023-02-04T10:14:59;101636.19;;;3.27;66.75
31717;BME280;18301;51.076;17.046;2023-02-04T10:20:02;101636.03;;;3.33;67.86
31717;BME280;18301;51.076;17.046;2023-02-04T10:25:11;101648.25;;;3.43;66.66
31717;BME280;18301;51.076;17.046;2023-02-04T10:30:21;101648.31;;;3.02;67.49
31717;BME280;18301;51.076;17.046;2023-02-04T10:35:23;101666.78;;;3.11;67.07
31717;BME280;18301;51.076;17.046;2023-02-04T10:40:25;101668.97;;;2.92;67.22
31717;BME280;18301;51.076;17.046;2023-02-04T10:45:28;101677.78;;;2.95;68.09
31717;BME280;18301;51.076;17.046;2023-02-04T10:50:30;101681.69;;;3.21;68.22
31717;BME280;18301;51.076;17.046;2023-02-04T10:55:32;101683.72;;;3.49;67.91
31717;BME280;18301;51.076;17.046;2023-02-04T11:00:34;101692.63;;;3.83;65.10
31717;BME280;18301;51.076;17.046;2023-02-04T11:05:35;101688.81;;;3.58;64.55
31717;BME280;18301;51.076;17.046;2023-02-04T11:10:37;101703.56;;;3.35;65.71
31717;BME280;18301;51.076;17.046;2023-02-04T11:15:53;101705.41;;;3.71;63.79
31717;BME280;18301;51.076;17.046;2023-02-04T11:20:58;101714.91;;;3.82;64.47
31717;BME280;18301;51.076;17.046;2023-02-04T11:26:06;101730.38;;;3.68;61.38
31717;BME280;18301;51.076;17.046;2023-02-04T11:36:22;101725.41;;;3.90;60.39
31717;BME280;18301;51.076;17.046;2023-02-04T11:41:26;101743.38;;;4.52;55.96
31717;BME280;18301;51.076;17.046;2023-02-04T11:46:29;101726.41;;;4.20;58.80
31717;BME280;18301;51.076;17.046;2023-02-04T11:51:34;101730.50;;;4.01;56.42
31717;BME280;18301;51.076;17.046;2023-02-04T11:56:35;101759.09;;;3.96;55.71
31717;BME280;18301;51.076;17.046;2023-02-04T12:01:37;101758.22;;;3.58;55.58
31717;BME280;18301;51.076;17.046;2023-02-04T12:06:39;101757.50;;;3.51;55.18
31717;BME280;18301;51.076;17.046;2023-02-04T12:12:00;101771.59;;;3.16;55.62
31717;BME280;18301;51.076;17.046;2023-02-04T12:17:14;101757.53;;;3.08;56.77
31717;BME280;18301;51.076;17.046;2023-02-04T12:22:16;101780.91;;;2.95;56.69
31717;BME280;18301;51.076;17.046;2023-02-04T12:27:18;101780.78;;;3.03;57.66
31717;BME280;18301;51.076;17.046;2023-02-04T12:32:20;101788.94;;;3.37;57.49
31717;BME280;18301;51.076;17.046;2023-02-04T12:37:21;101785.00;;;3.55;55.27
31717;BME280;18301;51.076;17.046;2023-02-04T12:42:22;101776.56;;;3.73;53.95
31717;BME280;18301;51.076;17.046;2023-02-04T12:47:24;101788.19;;;3.30;55.46
31717;BME280;18301;51.076;17.046;2023-02-04T12:52:25;101783.88;;;3.25;56.67
31717;BME280;18301;51.076;17.046;2023-02-04T12:57:28;101788.69;;;3.47;56.75
31717;BME280;18301;51.076;17.046;2023-02-04T13:02:29;101794.56;;;3.23;57.04
31717;BME280;18301;51.076;17.046;2023-02-04T13:07:31;101797.22;;;3.23;57.57
31717;BME280;18301;51.076;17.046;2023-02-04T13:12:33;101807.56;;;3.40;57.78
31717;BME280;18301;51.076;17.046;2023-02-04T13:17:35;101810.44;;;3.29;55.94
31717;BME280;18301;51.076;17.046;2023-02-04T13:22:36;101819.59;;;3.16;55.72
31717;BME280;18301;51.076;17.046;2023-02-04T13:27:38;101807.16;;;3.57;55.37
31717;BME280;18301;51.076;17.046;2023-02-04T13:32:40;101810.69;;;3.17;54.91
31717;BME280;18301;51.076;17.046;2023-02-04T13:37:42;101823.91;;;3.23;54.63
31717;BME280;18301;51.076;17.046;2023-02-04T13:42:43;101817.63;;;3.26;53.84
31717;BME280;18301;51.076;17.046;2023-02-04T13:47:45;101817.88;;;3.13;54.04
31717;BME280;18301;51.076;17.046;2023-02-04T13:52:48;101836.84;;;2.98;55.52
31717;BME280;18301;51.076;17.046;2023-02-04T13:57:49;101840.16;;;3.11;55.24
31717;BME280;18301;51.076;17.046;2023-02-04T14:02:51;101831.00;;;3.24;55.50
31717;BME280;18301;51.076;17.046;2023-02-04T14:07:52;101863.03;;;3.24;58.59
31717;BME280;18301;51.076;17.046;2023-02-04T14:12:54;101861.13;;;2.84;61.35
31717;BME280;18301;51.076;17.046;2023-02-04T14:17:55;101858.19;;;2.48;63.48
31717;BME280;18301;51.076;17.046;2023-02-04T14:22:57;101858.19;;;2.48;63.29
31717;BME280;18301;51.076;17.046;2023-02-04T14:27:58;101859.97;;;2.49;64.95
31717;BME280;18301;51.076;17.046;2023-02-04T14:33:00;101870.69;;;2.46;63.99
31717;BME280;18301;51.076;17.046;2023-02-04T14:38:02;101865.31;;;2.49;63.67
31717;BME280;18301;51.076;17.046;2023-02-04T14:43:04;101868.53;;;2.67;63.57
31717;BME280;18301;51.076;17.046;2023-02-04T14:48:06;101868.25;;;2.82;62.92
31717;BME280;18301;51.076;17.046;2023-02-04T14:53:08;101866.47;;;2.84;62.79
31717;BME280;18301;51.076;17.046;2023-02-04T14:58:09;101868.97;;;2.92;61.92
31717;BME280;18301;51.076;17.046;2023-02-04T15:03:11;101873.25;;;3.00;62.67
31717;BME280;18301;51.076;17.046;2023-02-04T15:08:12;101869.78;;;2.95;62.44
31717;BME280;18301;51.076;17.046;2023-02-04T15:13:14;101887.84;;;2.81;62.30
31717;BME280;18301;51.076;17.046;2023-02-04T15:18:15;101891.00;;;2.53;64.32
31717;BME280;18301;51.076;17.046;2023-02-04T15:23:16;101886.41;;;2.62;64.37
31717;BME280;18301;51.076;17.046;2023-02-04T15:28:18;101888.16;;;2.63;64.71
31717;BME280;18301;51.076;17.046;2023-02-04T15:33:19;101892.41;;;2.74;64.40
31717;BME280;18301;51.076;17.046;2023-02-04T15:38:21;101900.38;;;2.76;64.56
31717;BME280;18301;51.076;17.046;2023-02-04T15:43:23;101909.44;;;2.66;65.36
31717;BME280;18301;51.076;17.046;2023-02-04T15:48:24;101892.16;;;2.37;70.82
31717;BME280;18301;51.076;17.046;2023-02-04T15:53:27;101915.81;;;1.97;73.16
31717;BME280;18301;51.076;17.046;2023-02-04T15:58:30;101900.91;;;1.83;71.98
31717;BME280;18301;51.076;17.046;2023-02-04T16:03:31;101913.34;;;1.81;72.31
31717;BME280;18301;51.076;17.046;2023-02-04T16:08:33;101918.78;;;1.74;70.64
31717;BME280;18301;51.076;17.046;2023-02-04T16:13:34;101918.16;;;1.53;70.76
31717;BME280;18301;51.076;17.046;2023-02-04T16:18:37;101928.75;;;1.56;70.18
31717;BME280;18301;51.076;17.046;2023-02-04T16:23:38;101922.66;;;1.48;69.12
31717;BME280;18301;51.076;17.046;2023-02-04T16:28:39;101932.16;;;1.71;68.60
31717;BME280;18301;51.076;17.046;2023-02-04T16:33:41;101948.22;;;1.61;68.82
31717;BME280;18301;51.076;17.046;2023-02-04T16:38:42;101939.69;;;1.32;69.52
31717;BME280;18301;51.076;17.046;2023-02-04T16:43:44;101943.34;;;1.22;70.24
31717;BME280;18301;51.076;17.046;2023-02-04T16:48:45;101950.22;;;1.41;70.08
31717;BME280;18301;51.076;17.046;2023-02-04T16:53:47;101957.13;;;1.60;69.49
31717;BME280;18301;51.076;17.046;2023-02-04T16:58:48;101956.91;;;1.77;69.35
31717;BME280;18301;51.076;17.046;2023-02-04T17:03:50;101956.03;;;1.77;69.03
31717;BME280;18301;51.076;17.046;2023-02-04T17:08:58;101960.63;;;1.63;69.27
31717;BME280;18301;51.076;17.046;2023-02-04T17:14:02;101957.84;;;1.72;68.80
31717;BME280;18301;51.076;17.046;2023-02-04T17:19:05;101964.19;;;1.61;68.11
31717;BME280;18301;51.076;17.046;2023-02-04T17:24:07;101967.81;;;1.54;68.00
31717;BME280;18301;51.076;17.046;2023-02-04T17:29:11;101967.78;;;1.57;68.32
31717;BME280;18301;51.076;17.046;2023-02-04T17:34:13;101979.31;;;1.56;68.52
31717;BME280;18301;51.076;17.046;2023-02-04T17:39:14;101978.50;;;1.51;68.51
31717;BME280;18301;51.076;17.046;2023-02-04T17:44:16;101977.69;;;1.42;69.20
31717;BME280;18301;51.076;17.046;2023-02-04T17:49:20;101995.47;;;1.40;68.89
31717;BME280;18301;51.076;17.046;2023-02-04T17:54:21;101987.44;;;1.44;67.76
31717;BME280;18301;51.076;17.046;2023-02-04T17:59:23;101991.09;;;1.34;67.70
31717;BME280;18301;51.076;17.046;2023-02-04T18:04:24;101992.94;;;1.26;67.97
31717;BME280;18301;51.076;17.046;2023-02-04T18:09:26;101994.47;;;1.51;67.05
31717;BME280;18301;51.076;17.046;2023-02-04T18:14:27;102000.56;;;1.61;65.84
31717;BME280;18301;51.076;17.046;2023-02-04T18:19:32;102003.28;;;1.53;65.44
31717;BME280;18301;51.076;17.046;2023-02-04T18:24:38;102002.41;;;1.54;65.99
31717;BME280;18301;51.076;17.046;2023-02-04T18:29:42;102010.53;;;1.42;65.94
31717;BME280;18301;51.076;17.046;2023-02-04T18:34:47;102027.13;;;1.67;65.03
31717;BME280;18301;51.076;17.046;2023-02-04T18:39:49;102036.88;;;1.65;65.47
31717;BME280;18301;51.076;17.046;2023-02-04T18:44:51;102044.97;;;1.56;65.14
31717;BME280;18301;51.076;17.046;2023-02-04T18:49:55;102043.09;;;1.67;64.86
31717;BME280;18301;51.076;17.046;2023-02-04T18:54:56;102052.94;;;1.57;64.90
31717;BME280;18301;51.076;17.046;2023-02-04T19:00:26;102053.03;;;1.48;64.89
31717;BME280;18301;51.076;17.046;2023-02-04T19:05:31;102039.88;;;1.31;64.82
31717;BME280;18301;51.076;17.046;2023-02-04T19:10:37;102046.00;;;1.38;64.89
31717;BME280;18301;51.076;17.046;2023-02-04T19:15:39;102061.13;;;1.34;65.33
31717;BME280;18301;51.076;17.046;2023-02-04T19:20:41;102063.66;;;1.50;64.76
31717;BME280;18301;51.076;17.046;2023-02-04T19:25:47;102066.81;;;1.87;62.94
31717;BME280;18301;51.076;17.046;2023-02-04T19:30:55;102067.09;;;1.59;62.87
31717;BME280;18301;51.076;17.046;2023-02-04T19:36:12;102061.03;;;1.45;64.00
31717;BME280;18301;51.076;17.046;2023-02-04T19:41:27;102071.53;;;1.60;63.16
31717;BME280;18301;51.076;17.046;2023-02-04T19:46:31;102063.69;;;1.48;62.78
31717;BME280;18301;51.076;17.046;2023-02-04T19:51:34;102081.38;;;1.51;63.69
31717;BME280;18301;51.076;17.046;2023-02-04T19:56:38;102078.66;;;1.57;63.55
31717;BME280;18301;51.076;17.046;2023-02-04T20:01:40;102075.97;;;1.58;63.71
31717;BME280;18301;51.076;17.046;2023-02-04T20:06:42;102077.59;;;1.75;63.03
31717;BME280;18301;51.076;17.046;2023-02-04T20:11:52;102093.47;;;1.84;62.57
31717;BME280;18301;51.076;17.046;2023-02-04T20:17:19;102084.72;;;1.73;62.07
31717;BME280;18301;51.076;17.046;2023-02-04T20:22:40;102092.97;;;1.45;62.95
31717;BME280;18301;51.076;17.046;2023-02-04T20:27:42;102109.97;;;1.26;63.45
31717;BME280;18301;51.076;17.046;2023-02-04T20:32:52;102112.44;;;1.47;63.26
31717;BME280;18301;51.076;17.046;2023-02-04T20:37:57;102119.69;;;1.33;64.19
31717;BME280;18301;51.076;17.046;2023-02-04T20:43:00;102125.97;;;1.17;64.29
31717;BME280;18301;51.076;17.046;2023-02-04T20:53:26;102136.75;;;0.95;65.30
31717;BME280;18301;51.076;17.046;2023-02-04T20:58:37;102127.97;;;0.90;65.23
31717;BME280;18301;51.076;17.046;2023-02-04T21:03:39;102142.09;;;0.92;65.57
31717;BME280;18301;51.076;17.046;2023-02-04T21:08:45;102150.94;;;0.97;65.15
31717;BME280;18301;51.076;17.046;2023-02-04T21:13:49;102144.75;;;0.92;65.10
31717;BME280;18301;51.076;17.046;2023-02-04T21:18:51;102147.56;;;0.61;65.96
31717;BME280;18301;51.076;17.046;2023-02-04T21:23:54;102146.72;;;0.58;67.00
31717;BME280;18301;51.076;17.046;2023-02-04T21:28:55;102153.81;;;0.56;66.32
31717;BME280;18301;51.076;17.046;2023-02-04T21:33:57;102151.22;;;0.42;66.79
31717;BME280;18301;51.076;17.046;2023-02-04T21:38:59;102152.09;;;0.42;66.74
31717;BME280;18301;51.076;17.046;2023-02-04T21:44:00;102153.03;;;0.21;67.67
31717;BME280;18301;51.076;17.046;2023-02-04T21:49:02;102152.19;;;0.16;67.43
31717;BME280;18301;51.076;17.046;2023-02-04T21:54:05;102161.94;;;0.05;67.98
31717;BME280;18301;51.076;17.046;2023-02-04T21:59:06;102165.47;;;0.16;67.75
31717;BME280;18301;51.076;17.046;2023-02-04T22:04:08;102167.19;;;0.23;67.50
31717;BME280;18301;51.076;17.046;2023-02-04T22:09:09;102177.78;;;0.36;67.40
31717;BME280;18301;51.076;17.046;2023-02-04T22:14:11;102188.44;;;0.33;67.21
31717;BME280;18301;51.076;17.046;2023-02-04T22:19:13;102185.78;;;0.31;67.47
31717;BME280;18301;51.076;17.046;2023-02-04T22:24:14;102189.28;;;0.42;66.92
31717;BME280;18301;51.076;17.046;2023-02-04T22:29:16;102191.97;;;0.30;67.30
31717;BME280;18301;51.076;17.046;2023-02-04T22:34:24;102188.44;;;0.20;67.06
31717;BME280;18301;51.076;17.046;2023-02-04T22:39:26;102188.47;;;0.25;67.67
31717;BME280;18301;51.076;17.046;2023-02-04T22:44:27;102197.31;;;0.19;67.49
31717;BME280;18301;51.076;17.046;2023-02-04T22:49:29;102185.81;;;0.22;67.11
31717;BME280;18301;51.076;17.046;2023-02-04T22:54:32;102195.50;;;0.31;66.40
31717;BME280;18301;51.076;17.046;2023-02-04T22:59:34;102192.81;;;0.51;66.78
31717;BME280;18301;51.076;17.046;2023-02-04T23:04:36;102198.19;;;0.21;66.53
31717;BME280;18301;51.076;17.046;2023-02-04T23:09:38;102184.91;;;0.21;66.44
31717;BME280;18301;51.076;17.046;2023-02-04T23:14:46;102190.25;;;0.03;67.44
31717;BME280;18301;51.076;17.046;2023-02-04T23:19:48;102185.78;;;0.31;66.54
31717;BME280;18301;51.076;17.046;2023-02-04T23:24:50;102185.84;;;-0.04;67.00
31717;BME280;18301;51.076;17.046;2023-02-04T23:29:51;102181.44;;;-0.02;67.14
31717;BME280;18301;51.076;17.046;2023-02-04T23:34:52;102181.44;;;-0.11;67.27
31717;BME280;18301;51.076;17.046;2023-02-04T23:39:54;102192.97;;;-0.37;67.74
31717;BME280;18301;51.076;17.046;2023-02-04T23:44:55;102177.91;;;-0.32;67.67
31717;BME280;18301;51.076;17.046;2023-02-04T23:49:57;102177.91;;;-0.38;67.73
31717;BME280;18301;51.076;17.046;2023-02-04T23:54:58;102174.38;;;-0.21;67.88
